createdAt,value
2022-10-26T00:01:31.376Z,101543.88
2022-10-26T00:03:59.807Z,101550.88
2022-10-26T00:06:28.980Z,101547.34
2022-10-26T00:08:57.674Z,101549.94
2022-10-26T00:11:26.044Z,101554.25
2022-10-26T00:13:54.383Z,101551.59
2022-10-26T00:16:26.471Z,101549.84
2022-10-26T00:18:54.883Z,101558.59
2022-10-26T00:21:23.445Z,101568.19
2022-10-26T00:23:51.733Z,101562.00
2022-10-26T00:26:20.046Z,101553.19
2022-10-26T00:28:49.110Z,101551.41
2022-10-26T00:31:18.060Z,101547.94
2022-10-26T00:33:46.541Z,101552.31
2022-10-26T00:36:16.753Z,101553.13
2022-10-26T00:38:53.340Z,101549.59
2022-10-26T00:41:25.006Z,101546.03
2022-10-26T00:43:54.457Z,101552.16
2022-10-26T00:46:36.201Z,101541.59
2022-10-26T00:51:52.346Z,101549.41
2022-10-26T00:54:21.316Z,101532.69
2022-10-26T00:56:51.967Z,101536.16
2022-10-26T00:59:21.885Z,101544.06
2022-10-26T01:01:51.615Z,101537.88
2022-10-26T01:04:20.348Z,101537.88
2022-10-26T01:06:49.840Z,101532.63
2022-10-26T01:09:19.150Z,101516.78
2022-10-26T01:11:53.868Z,101519.41
2022-10-26T01:14:24.219Z,101519.44
2022-10-26T01:17:37.483Z,101519.44
2022-10-26T01:20:31.048Z,101515.94
2022-10-26T01:23:05.361Z,101510.66
2022-10-26T01:26:04.671Z,101511.50
2022-10-26T01:29:03.669Z,101522.03
2022-10-26T01:31:42.241Z,101508.88
2022-10-26T01:34:22.455Z,101510.59
2022-10-26T01:36:58.508Z,101502.69
2022-10-26T01:39:39.281Z,101507.94
2022-10-26T01:42:09.355Z,101500.03
2022-10-26T01:44:49.471Z,101503.56
2022-10-26T01:47:20.881Z,101501.78
2022-10-26T01:49:56.681Z,101509.66
2022-10-26T01:52:25.477Z,101509.66
2022-10-26T01:55:20.466Z,101496.50
2022-10-26T01:57:51.923Z,101496.50
2022-10-26T02:00:20.347Z,101494.75
2022-10-26T02:03:02.294Z,101494.75
2022-10-26T02:05:47.682Z,101482.44
2022-10-26T02:08:37.710Z,101484.19
2022-10-26T02:11:15.014Z,101487.72
2022-10-26T02:14:16.161Z,101481.59
2022-10-26T02:16:56.340Z,101483.31
2022-10-26T02:19:36.951Z,101478.97
2022-10-26T02:22:28.943Z,101471.94
2022-10-26T02:25:01.418Z,101469.25
2022-10-26T02:27:35.119Z,101472.81
2022-10-26T02:30:05.525Z,101467.53
2022-10-26T02:32:37.725Z,101465.75
2022-10-26T02:35:06.566Z,101462.25
2022-10-26T02:37:36.601Z,101460.50
2022-10-26T02:40:11.965Z,101463.97
2022-10-26T02:42:45.180Z,101465.72
2022-10-26T02:45:18.602Z,101461.34
2022-10-26T02:47:47.666Z,101456.88
2022-10-26T02:50:19.440Z,101455.13
2022-10-26T02:52:54.144Z,101452.50
2022-10-26T02:55:35.325Z,101450.72
2022-10-26T02:58:09.267Z,101452.44
2022-10-26T03:00:38.397Z,101452.41
2022-10-26T03:03:06.727Z,101447.06
2022-10-26T03:05:36.914Z,101450.53
2022-10-26T03:08:05.515Z,101457.56
2022-10-26T03:10:38.079Z,101454.94
2022-10-26T03:13:06.354Z,101457.53
2022-10-26T03:15:34.690Z,101458.38
2022-10-26T03:18:02.988Z,101460.09
2022-10-26T03:20:32.023Z,101453.03
2022-10-26T03:23:00.705Z,101456.50
2022-10-26T03:25:29.176Z,101459.97
2022-10-26T03:27:59.235Z,101452.97
2022-10-26T03:30:28.303Z,101451.19
2022-10-26T03:32:57.073Z,101445.88
2022-10-26T03:35:25.532Z,101446.72
2022-10-26T03:37:53.898Z,101441.44
2022-10-26T03:40:22.154Z,101443.19
2022-10-26T03:42:50.947Z,101429.13
2022-10-26T03:45:19.569Z,101431.72
2022-10-26T03:47:49.473Z,101429.03
2022-10-26T03:50:20.848Z,101432.53
2022-10-26T03:52:49.502Z,101429.00
2022-10-26T03:55:19.356Z,101427.16
2022-10-26T03:57:47.794Z,101433.28
2022-10-26T04:00:17.725Z,101421.84
2022-10-26T04:02:53.719Z,101422.69
2022-10-26T04:05:22.302Z,101423.53
2022-10-26T04:07:58.321Z,101427.91
2022-10-26T04:10:27.827Z,101424.41
2022-10-26T04:12:56.514Z,101427.03
2022-10-26T04:15:24.813Z,101421.78
2022-10-26T04:17:58.542Z,101422.69
2022-10-26T04:20:28.526Z,101421.78
2022-10-26T04:23:05.225Z,101422.72
2022-10-26T04:25:34.715Z,101430.59
2022-10-26T04:28:05.343Z,101426.22
2022-10-26T04:30:35.331Z,101426.25
2022-10-26T04:33:04.730Z,101419.22
2022-10-26T04:35:34.965Z,101423.63
2022-10-26T04:38:05.906Z,101422.75
2022-10-26T04:40:35.433Z,101420.13
2022-10-26T04:43:03.764Z,101420.16
2022-10-26T04:45:32.487Z,101419.28
2022-10-26T04:48:10.257Z,101411.41
2022-10-26T04:50:39.717Z,101420.16
2022-10-26T04:53:09.635Z,101421.03
2022-10-26T04:55:38.019Z,101416.66
2022-10-26T04:58:08.136Z,101415.88
2022-10-26T05:00:36.427Z,101426.41
2022-10-26T05:03:08.043Z,101422.97
2022-10-26T05:05:37.798Z,101422.09
2022-10-26T05:08:06.768Z,101418.63
2022-10-26T05:10:35.173Z,101414.22
2022-10-26T05:13:03.515Z,101420.38
2022-10-26T05:15:32.052Z,101419.47
2022-10-26T05:18:03.519Z,101420.34
2022-10-26T05:20:34.259Z,101419.47
2022-10-26T05:23:03.569Z,101415.03
2022-10-26T05:25:35.118Z,101422.09
2022-10-26T05:28:06.339Z,101417.66
2022-10-26T05:30:35.301Z,101421.25
2022-10-26T05:33:03.851Z,101417.75
2022-10-26T05:35:32.933Z,101420.38
2022-10-26T05:38:07.332Z,101416.91
2022-10-26T05:40:36.022Z,101413.44
2022-10-26T05:43:04.826Z,101416.06
2022-10-26T05:45:33.091Z,101421.34
2022-10-26T05:48:02.787Z,101426.69
2022-10-26T05:50:31.552Z,101425.84
2022-10-26T05:53:00.519Z,101426.78
2022-10-26T05:55:31.039Z,101432.09
2022-10-26T05:58:01.271Z,101440.03
2022-10-26T06:00:33.297Z,101430.41
2022-10-26T06:03:04.418Z,101427.81
2022-10-26T06:05:45.398Z,101431.38
2022-10-26T06:08:13.914Z,101434.06
2022-10-26T06:10:42.389Z,101436.72
2022-10-26T06:13:10.992Z,101445.56
2022-10-26T06:15:48.692Z,101437.66
2022-10-26T06:18:35.272Z,101431.56
2022-10-26T06:21:22.567Z,101426.34
2022-10-26T06:24:00.111Z,101416.72
2022-10-26T06:27:15.763Z,101413.22
2022-10-26T06:29:49.946Z,101414.13
2022-10-26T06:32:18.461Z,101411.50
2022-10-26T06:34:49.734Z,101403.63
2022-10-26T06:37:18.632Z,101403.63
2022-10-26T06:39:53.927Z,101408.03
2022-10-26T06:42:23.566Z,101406.28
2022-10-26T06:44:52.746Z,101409.81
2022-10-26T06:47:31.904Z,101408.97
2022-10-26T06:50:28.192Z,101413.41
2022-10-26T06:53:11.468Z,101412.56
2022-10-26T06:55:45.511Z,101408.22
2022-10-26T06:58:20.977Z,101408.28
2022-10-26T07:00:52.247Z,101413.63
2022-10-26T07:03:20.933Z,101407.53
2022-10-26T07:05:49.895Z,101397.06
2022-10-26T07:08:18.679Z,101396.22
2022-10-26T07:10:53.009Z,101407.72
2022-10-26T07:13:21.447Z,101404.28
2022-10-26T07:15:49.753Z,101402.59
2022-10-26T07:18:18.340Z,101404.41
2022-10-26T07:20:46.769Z,101400.06
2022-10-26T07:23:15.983Z,101408.94
2022-10-26T07:25:44.223Z,101411.63
2022-10-26T07:28:12.947Z,101406.41
2022-10-26T07:30:41.380Z,101405.63
2022-10-26T07:33:12.444Z,101408.28
2022-10-26T07:35:41.280Z,101421.47
2022-10-26T07:38:09.881Z,101419.78
2022-10-26T07:40:38.260Z,101418.91
2022-10-26T07:43:06.749Z,101427.75
2022-10-26T07:45:36.755Z,101419.88
2022-10-26T07:48:05.186Z,101425.16
2022-10-26T07:50:34.914Z,101430.50
2022-10-26T07:53:03.345Z,101420.81
2022-10-26T07:55:31.568Z,101419.09
2022-10-26T07:58:00.190Z,101414.72
2022-10-26T08:00:29.998Z,101418.28
2022-10-26T08:02:58.306Z,101416.53
2022-10-26T08:05:26.844Z,101407.81
2022-10-26T08:07:55.216Z,101405.25
2022-10-26T08:10:23.963Z,101400.88
2022-10-26T08:12:53.246Z,101401.81
2022-10-26T08:15:21.585Z,101404.53
2022-10-26T08:17:50.177Z,101406.31
2022-10-26T08:20:18.994Z,101401.09
2022-10-26T08:22:47.772Z,101398.53
2022-10-26T08:25:18.945Z,101396.88
2022-10-26T08:27:50.129Z,101401.31
2022-10-26T08:30:18.705Z,101405.75
2022-10-26T08:32:47.335Z,101414.66
2022-10-26T08:35:16.050Z,101412.09
2022-10-26T08:37:44.331Z,101416.56
2022-10-26T08:40:17.023Z,101407.84
2022-10-26T08:42:50.456Z,101409.66
2022-10-26T08:45:36.843Z,101404.44
2022-10-26T08:48:13.783Z,101410.69
2022-10-26T08:50:49.601Z,101421.28
2022-10-26T08:53:53.480Z,101416.03
2022-10-26T08:56:47.285Z,101412.59
2022-10-26T08:59:43.629Z,101409.13
2022-10-26T09:02:17.075Z,101407.44
2022-10-26T09:04:45.693Z,101403.94
2022-10-26T09:07:29.247Z,101395.19
2022-10-26T09:10:14.906Z,101394.31
2022-10-26T09:13:03.356Z,101395.22
2022-10-26T09:16:05.640Z,101397.03
2022-10-26T09:18:43.073Z,101406.75
2022-10-26T09:21:27.465Z,101405.88
2022-10-26T09:24:03.908Z,101400.59
2022-10-26T09:26:35.734Z,101397.97
2022-10-26T09:29:11.142Z,101398.84
2022-10-26T09:31:43.429Z,101409.47
2022-10-26T09:34:23.126Z,101406.81
2022-10-26T09:36:55.658Z,101406.84
2022-10-26T09:39:43.378Z,101413.91
2022-10-26T09:42:22.703Z,101410.41
2022-10-26T09:45:13.302Z,101411.31
2022-10-26T09:47:49.869Z,101413.06
2022-10-26T09:50:26.435Z,101416.59
2022-10-26T09:52:54.753Z,101413.91
2022-10-26T09:55:23.864Z,101405.91
2022-10-26T09:57:56.189Z,101405.91
2022-10-26T10:00:26.219Z,101408.53
2022-10-26T10:02:58.882Z,101411.13
2022-10-26T10:05:50.324Z,101419.06
2022-10-26T10:08:22.100Z,101424.31
2022-10-26T10:11:05.783Z,101424.22
2022-10-26T10:13:36.999Z,101413.50
2022-10-26T10:16:22.137Z,101417.88
2022-10-26T10:18:58.277Z,101420.44
2022-10-26T10:21:48.580Z,101424.75
2022-10-26T10:24:33.876Z,101429.94
2022-10-26T10:27:18.460Z,101434.34
2022-10-26T10:29:48.064Z,101431.63
2022-10-26T10:32:28.628Z,101431.63
2022-10-26T10:34:58.999Z,101435.13
2022-10-26T10:37:46.070Z,101443.09
2022-10-26T10:40:20.771Z,101437.75
2022-10-26T10:42:55.558Z,101436.84
2022-10-26T10:45:26.752Z,101439.44
2022-10-26T10:48:13.367Z,101435.00
2022-10-26T10:51:13.065Z,101431.41
2022-10-26T10:53:51.781Z,101430.47
2022-10-26T10:56:48.970Z,101435.78
2022-10-26T10:59:38.927Z,101439.34
2022-10-26T11:02:13.616Z,101452.66
2022-10-26T11:05:03.405Z,101432.34
2022-10-26T11:07:45.011Z,101433.28
2022-10-26T11:10:17.841Z,101432.41
2022-10-26T11:12:58.767Z,101435.03
2022-10-26T11:15:32.140Z,101439.47
2022-10-26T11:18:11.605Z,101434.16
2022-10-26T11:20:47.821Z,101434.13
2022-10-26T11:24:11.475Z,101434.16
2022-10-26T11:26:46.355Z,101426.16
2022-10-26T11:29:26.128Z,101424.44
2022-10-26T11:32:01.684Z,101423.50
2022-10-26T11:34:38.053Z,101416.41
2022-10-26T11:40:12.271Z,101423.41
2022-10-26T11:42:49.274Z,101422.50
2022-10-26T11:45:23.575Z,101430.44
2022-10-26T11:47:59.735Z,101427.69
2022-10-26T11:50:36.696Z,101435.59
2022-10-26T11:53:14.895Z,101435.44
2022-10-26T11:55:55.782Z,101441.56
2022-10-26T11:58:26.777Z,101434.38
2022-10-26T12:00:57.991Z,101436.97
2022-10-26T12:03:32.754Z,101447.56
2022-10-26T12:06:01.453Z,101443.97
2022-10-26T12:08:38.919Z,101447.47
2022-10-26T12:11:22.313Z,101456.28
2022-10-26T12:13:52.563Z,101451.72
2022-10-26T12:16:43.214Z,101459.63
2022-10-26T12:19:32.121Z,101459.56
2022-10-26T12:22:01.027Z,101453.31
2022-10-26T12:24:35.557Z,101461.25
2022-10-26T12:27:06.459Z,101472.75
2022-10-26T12:29:46.634Z,101467.41
2022-10-26T12:32:33.613Z,101468.28
2022-10-26T12:35:43.763Z,101471.78
2022-10-26T12:38:24.258Z,101471.78
2022-10-26T12:41:07.818Z,101479.78
2022-10-26T12:43:39.997Z,101487.75
2022-10-26T12:46:14.776Z,101477.97
2022-10-26T12:48:50.812Z,101486.91
2022-10-26T12:51:22.514Z,101478.03
2022-10-26T12:54:35.872Z,101477.13
2022-10-26T12:57:29.141Z,101480.69
2022-10-26T13:00:14.876Z,101487.75
2022-10-26T13:03:01.096Z,101490.44
2022-10-26T13:06:04.114Z,101501.16
2022-10-26T13:08:42.202Z,101504.59
2022-10-26T13:11:21.276Z,101502.72
2022-10-26T13:13:55.840Z,101507.97
2022-10-26T13:16:27.083Z,101506.19
2022-10-26T13:18:56.749Z,101506.19
2022-10-26T13:21:26.216Z,101510.63
2022-10-26T13:23:54.900Z,101499.03
2022-10-26T13:26:28.601Z,101498.16
2022-10-26T13:29:00.391Z,101496.34
2022-10-26T13:31:28.983Z,101503.41
2022-10-26T13:34:11.028Z,101502.50
2022-10-26T13:37:13.404Z,101501.66
2022-10-26T13:39:47.376Z,101503.47
2022-10-26T13:42:21.859Z,101512.34
2022-10-26T13:44:59.755Z,101515.94
2022-10-26T13:47:49.776Z,101527.47
2022-10-26T13:50:24.772Z,101518.63
2022-10-26T13:53:05.779Z,101518.66
2022-10-26T13:55:45.462Z,101519.56
2022-10-26T13:58:35.031Z,101528.44
2022-10-26T14:01:09.562Z,101524.94
2022-10-26T14:03:39.012Z,101531.19
2022-10-26T14:06:32.608Z,101522.34
2022-10-26T14:09:05.072Z,101521.47
2022-10-26T14:11:43.052Z,101526.81
2022-10-26T14:14:18.625Z,101531.31
2022-10-26T14:16:50.510Z,101533.09
2022-10-26T14:19:29.125Z,101531.34
2022-10-26T14:21:58.535Z,101533.13
2022-10-26T14:24:47.004Z,101537.56
2022-10-26T14:27:22.165Z,101548.22
2022-10-26T14:32:41.213Z,101552.75
2022-10-26T14:35:16.366Z,101551.88
2022-10-26T14:37:47.253Z,101563.47
2022-10-26T14:40:21.080Z,101558.19
2022-10-26T14:42:52.881Z,101556.41
2022-10-26T14:45:49.312Z,101575.09
2022-10-26T14:48:21.336Z,101569.78
2022-10-26T14:51:06.046Z,101581.38
2022-10-26T14:53:40.182Z,101587.56
2022-10-26T14:56:28.866Z,101585.84
2022-10-26T14:58:58.770Z,101583.25
2022-10-26T15:01:33.179Z,101587.72
2022-10-26T15:04:06.777Z,101591.34
2022-10-26T15:06:45.516Z,101590.56
2022-10-26T15:09:33.036Z,101594.16
2022-10-26T15:12:04.275Z,101603.13
2022-10-26T15:14:34.125Z,101604.91
2022-10-26T15:17:04.018Z,101609.38
2022-10-26T15:19:40.229Z,101612.09
2022-10-26T15:22:22.945Z,101623.66
2022-10-26T15:24:58.064Z,101627.25
2022-10-26T15:27:29.549Z,101629.94
2022-10-26T15:30:24.552Z,101637.97
2022-10-26T15:32:55.242Z,101644.19
2022-10-26T15:35:32.069Z,101644.19
2022-10-26T15:38:01.316Z,101653.00
2022-10-26T15:40:31.595Z,101662.75
2022-10-26T15:43:00.975Z,101661.00
2022-10-26T15:45:36.145Z,101664.53
2022-10-26T15:48:21.495Z,101669.88
2022-10-26T15:50:50.453Z,101672.53
2022-10-26T15:53:27.591Z,101682.28
2022-10-26T15:55:59.415Z,101682.28
2022-10-26T15:58:31.525Z,101684.06
2022-10-26T16:01:00.041Z,101679.63
2022-10-26T16:03:28.943Z,101682.28
2022-10-26T16:06:01.043Z,101688.50
2022-10-26T16:08:32.376Z,101684.97
2022-10-26T16:11:01.589Z,101689.44
2022-10-26T16:13:30.666Z,101686.78
2022-10-26T16:15:58.934Z,101684.16
2022-10-26T16:18:27.345Z,101680.63
2022-10-26T16:20:55.918Z,101689.50
2022-10-26T16:23:24.172Z,101685.97
2022-10-26T16:25:52.450Z,101690.41
2022-10-26T16:28:21.464Z,101693.06
2022-10-26T16:30:49.730Z,101704.59
2022-10-26T16:33:19.464Z,101703.69
2022-10-26T16:35:57.144Z,101717.88
2022-10-26T16:38:26.730Z,101708.16
2022-10-26T16:41:21.109Z,101715.22
2022-10-26T16:43:49.908Z,101713.47
2022-10-26T16:46:20.612Z,101723.22
2022-10-26T16:48:49.284Z,101725.84
2022-10-26T16:51:23.491Z,101717.88
2022-10-26T16:53:53.813Z,101728.50
2022-10-26T16:56:25.204Z,101728.50
2022-10-26T16:58:53.963Z,101733.78
2022-10-26T17:01:22.733Z,101730.25
2022-10-26T17:03:53.049Z,101737.34
2022-10-26T17:06:21.612Z,101736.44
2022-10-26T17:08:50.102Z,101731.16
2022-10-26T17:11:20.507Z,101736.47
2022-10-26T17:13:55.730Z,101732.03
2022-10-26T17:16:24.948Z,101732.91
2022-10-26T17:18:54.286Z,101737.34
2022-10-26T17:21:37.315Z,101739.09
2022-10-26T17:24:06.916Z,101730.25
2022-10-26T17:26:35.684Z,101740.88
2022-10-26T17:29:04.275Z,101745.31
2022-10-26T17:31:33.266Z,101757.69
2022-10-26T17:34:02.286Z,101759.44
2022-10-26T17:36:31.670Z,101757.69
2022-10-26T17:39:00.982Z,101769.19
2022-10-26T17:41:29.449Z,101767.41
2022-10-26T17:43:57.711Z,101771.81
2022-10-26T17:46:26.864Z,101772.72
2022-10-26T17:48:59.847Z,101773.59
2022-10-26T17:51:29.909Z,101782.44
2022-10-26T17:53:59.344Z,101777.09
2022-10-26T17:56:30.686Z,101786.81
2022-10-26T17:59:12.394Z,101788.56
2022-10-26T18:01:41.226Z,101791.22
2022-10-26T18:04:09.584Z,101792.97
2022-10-26T18:06:37.826Z,101800.03
2022-10-26T18:09:06.405Z,101800.91
2022-10-26T18:11:34.712Z,101793.84
2022-10-26T18:14:04.486Z,101809.75
2022-10-26T18:16:34.869Z,101804.41
2022-10-26T18:19:04.740Z,101805.31
2022-10-26T18:21:37.489Z,101814.13
2022-10-26T18:24:07.400Z,101813.25
2022-10-26T18:26:36.251Z,101825.63
2022-10-26T18:29:05.455Z,101819.44
2022-10-26T18:31:37.153Z,101824.75
2022-10-26T18:34:07.001Z,101825.59
2022-10-26T18:39:07.337Z,101831.78
2022-10-26T18:41:35.641Z,101822.97
2022-10-26T18:44:04.227Z,101830.03
2022-10-26T18:46:39.357Z,101837.97
2022-10-26T18:49:09.480Z,101835.31
2022-10-26T18:51:37.816Z,101840.63
2022-10-26T18:54:06.135Z,101844.16
2022-10-26T18:56:34.619Z,101848.56
2022-10-26T18:59:03.017Z,101848.56
2022-10-26T19:01:34.505Z,101851.22
2022-10-26T19:04:07.490Z,101845.94
2022-10-26T19:06:49.545Z,101848.56
2022-10-26T19:09:19.198Z,101855.66
2022-10-26T19:11:47.713Z,101868.88
2022-10-26T19:14:16.068Z,101867.97
2022-10-26T19:16:46.358Z,101866.22
2022-10-26T19:19:17.014Z,101875.94
2022-10-26T19:21:47.093Z,101875.03
2022-10-26T19:24:19.362Z,101872.38
2022-10-26T19:26:50.335Z,101872.38
2022-10-26T19:29:19.218Z,101882.09
2022-10-26T19:31:52.019Z,101884.75
2022-10-26T19:34:20.607Z,101884.72
2022-10-26T19:36:49.085Z,101885.59
2022-10-26T19:39:18.113Z,101891.78
2022-10-26T19:41:46.799Z,101897.06
2022-10-26T19:44:20.706Z,101897.94
2022-10-26T19:46:50.810Z,101901.44
2022-10-26T19:49:20.894Z,101909.41
2022-10-26T19:51:49.390Z,101912.94
2022-10-26T19:54:17.894Z,101912.91
2022-10-26T19:56:46.652Z,101914.69
2022-10-26T19:59:15.114Z,101914.66
2022-10-26T20:01:43.531Z,101913.78
2022-10-26T20:04:12.047Z,101932.31
2022-10-26T20:06:43.947Z,101933.19
2022-10-26T20:09:13.682Z,101942.00
2022-10-26T20:11:43.130Z,101946.41
2022-10-26T20:14:13.725Z,101945.50
2022-10-26T20:16:42.258Z,101941.09
2022-10-26T20:19:11.200Z,101942.81
2022-10-26T20:21:39.612Z,101944.56
2022-10-26T20:24:12.318Z,101947.22
2022-10-26T20:26:41.241Z,101952.50
2022-10-26T20:29:10.114Z,101956.88
2022-10-26T20:31:40.594Z,101958.63
2022-10-26T20:34:09.114Z,101952.44
2022-10-26T20:36:37.848Z,101960.38
2022-10-26T20:39:06.417Z,101948.91
2022-10-26T20:41:41.571Z,101955.94
2022-10-26T20:44:18.890Z,101957.66
2022-10-26T20:46:47.690Z,101964.72
2022-10-26T20:49:16.741Z,101973.56
2022-10-26T20:52:20.065Z,101973.53
2022-10-26T20:55:04.096Z,101970.00
2022-10-26T20:57:35.200Z,101969.09
2022-10-26T21:00:10.926Z,101972.63
2022-10-26T21:02:39.792Z,101977.03
2022-10-26T21:05:08.235Z,101971.72
2022-10-26T21:07:36.535Z,101981.44
2022-10-26T21:10:06.222Z,101986.69
2022-10-26T21:12:34.543Z,101985.81
2022-10-26T21:15:02.903Z,101987.56
2022-10-26T21:17:34.459Z,101988.44
2022-10-26T21:20:03.096Z,101978.72
2022-10-26T21:22:31.392Z,101991.03
2022-10-26T21:24:59.681Z,101998.09
2022-10-26T21:27:30.314Z,101999.81
2022-10-26T21:29:59.377Z,102001.50
2022-10-26T21:32:27.853Z,102001.53
2022-10-26T21:34:56.194Z,101997.94
2022-10-26T21:37:27.728Z,101998.84
2022-10-26T21:39:56.854Z,101997.97
2022-10-26T21:42:25.141Z,102010.28
2022-10-26T21:44:53.365Z,102013.78
2022-10-26T21:47:22.083Z,102023.44
2022-10-26T21:49:50.371Z,102013.72
2022-10-26T21:52:18.703Z,102017.22
2022-10-26T21:54:47.050Z,102018.94
2022-10-26T21:57:16.525Z,102023.38
2022-10-26T21:59:45.808Z,102032.16
2022-10-26T22:02:14.133Z,102025.97
2022-10-26T22:04:42.468Z,102030.38
2022-10-26T22:07:11.068Z,102033.88
2022-10-26T22:09:49.497Z,102029.44
2022-10-26T22:12:28.588Z,102031.19
2022-10-26T22:14:56.816Z,102039.09
2022-10-26T22:17:25.173Z,102036.41
2022-10-26T22:19:53.415Z,102043.47
2022-10-26T22:22:21.941Z,102027.56
2022-10-26T22:24:51.338Z,102031.06
2022-10-26T22:27:20.248Z,102032.81
2022-10-26T22:29:49.748Z,102036.28
2022-10-26T22:32:18.054Z,102039.78
2022-10-26T22:35:00.256Z,102035.34
2022-10-26T22:37:39.011Z,102039.72
2022-10-26T22:40:08.212Z,102044.13
2022-10-26T22:42:36.471Z,102043.25
2022-10-26T22:45:05.458Z,102052.03
2022-10-26T22:47:34.965Z,102048.50
2022-10-26T22:50:03.602Z,102043.22
2022-10-26T22:52:31.863Z,102038.78
2022-10-26T22:55:00.434Z,102046.69
2022-10-26T22:57:28.986Z,102045.78
2022-10-26T22:59:58.278Z,102043.09
2022-10-26T23:02:26.687Z,102041.31
2022-10-26T23:04:55.111Z,102037.78
2022-10-26T23:07:26.121Z,102049.13
2022-10-26T23:09:54.524Z,102045.59
2022-10-26T23:12:22.969Z,102045.56
2022-10-26T23:14:51.229Z,102045.50
2022-10-26T23:17:19.481Z,102052.47
2022-10-26T23:19:48.218Z,102059.47
2022-10-26T23:22:16.531Z,102060.28
2022-10-26T23:24:44.857Z,102062.91
2022-10-26T23:27:13.088Z,102066.34
2022-10-26T23:29:41.453Z,102068.97
2022-10-26T23:32:09.878Z,102070.69
2022-10-26T23:34:38.489Z,102068.88
2022-10-26T23:37:06.727Z,102066.16
2022-10-26T23:39:35.118Z,102065.28
2022-10-26T23:42:03.699Z,102067.91
2022-10-26T23:44:32.373Z,102072.31
2022-10-26T23:47:00.628Z,102074.00
2022-10-26T23:49:28.873Z,102074.88
2022-10-26T23:51:57.367Z,102080.16
2022-10-26T23:54:26.760Z,102075.72
2022-10-26T23:56:55.073Z,102077.44
2022-10-26T23:59:23.357Z,102087.06
